Time;durP1;ratioP1;P1;durP2;ratioP2;P2;SDS_P1;SDS_P2;PMS_P1;PMS_P2;Temp;Humidity;BMP_temperature;BMP_pressure;BME280_temperature;BME280_humidity;BME280_pressure;Samples;Min_cycle;Max_cycle;Signal;HPM_P1;HPM_P2
2022/04/25 00:00:36;;;;;;;27.33;6.13;;;;;;;15.90;60.56;98984.94;3141823;28;20525;-72
2022/04/25 00:02:08;;;;;;;22.55;4.45;;;;;;;15.90;60.74;98990.19;3143925;28;20505;-72
2022/04/25 00:03:40;;;;;;;28.75;4.18;;;;;;;15.93;60.61;98991.75;3144828;28;20052;-72
2022/04/25 00:05:12;;;;;;;18.98;4.78;;;;;;;15.93;60.19;98989.94;3146419;28;20099;-72
2022/04/25 00:06:44;;;;;;;28.02;4.60;;;;;;;15.93;60.30;98989.13;3146639;28;20052;-72
2022/04/25 00:08:16;;;;;;;24.10;5.15;;;;;;;15.95;60.17;98995.09;3146451;28;20052;-72
2022/04/25 00:09:47;;;;;;;27.45;3.88;;;;;;;15.96;60.36;98996.75;3146788;28;20109;-72
2022/04/25 00:11:19;;;;;;;21.42;3.90;;;;;;;15.97;59.98;98995.78;3146980;28;20048;-72
2022/04/25 00:12:50;;;;;;;27.60;4.78;;;;;;;15.97;60.24;98997.56;3146395;28;20176;-72
2022/04/25 00:14:22;;;;;;;18.30;4.57;;;;;;;15.99;59.85;98993.88;3146749;28;20052;-72
2022/04/25 00:15:54;;;;;;;19.17;3.58;;;;;;;15.96;59.92;98988.03;3142382;28;20099;-72
2022/04/25 00:17:25;;;;;;;22.20;3.83;;;;;;;15.95;59.85;98996.88;3146735;28;20441;-72
2022/04/25 00:18:57;;;;;;;24.73;3.85;;;;;;;15.92;59.84;99001.41;3144646;28;20059;-72
2022/04/25 00:20:31;;;;;;;21.63;4.35;;;;;;;15.92;60.14;99001.41;3146113;28;20091;-72
2022/04/25 00:22:03;;;;;;;16.60;3.67;;;;;;;15.93;60.02;98999.63;3139042;28;20060;-73
2022/04/25 00:23:35;;;;;;;26.67;4.35;;;;;;;15.92;59.78;99004.03;3146455;28;20107;-72
2022/04/25 00:25:08;;;;;;;17.35;4.18;;;;;;;15.85;60.08;98994.13;3140926;28;20061;-72
2022/04/25 00:26:40;;;;;;;22.90;3.97;;;;;;;15.87;60.12;99000.09;3139142;28;20079;-72
2022/04/25 00:28:11;;;;;;;21.02;3.72;;;;;;;15.87;60.22;99005.34;3143074;28;20048;-72
2022/04/25 00:29:43;;;;;;;25.20;4.05;;;;;;;15.85;59.95;99004.63;3140730;28;20056;-72
2022/04/25 00:31:15;;;;;;;22.23;4.43;;;;;;;15.82;60.03;99008.34;3145928;28;20052;-72
2022/04/25 00:32:47;;;;;;;25.20;4.28;;;;;;;15.83;59.96;99003.94;3140774;28;20057;-72
2022/04/25 00:34:19;;;;;;;23.83;4.00;;;;;;;15.80;60.06;99005.03;3145803;28;20502;-72
2022/04/25 00:35:52;;;;;;;27.50;5.20;;;;;;;15.83;59.99;99004.78;3145507;28;20059;-72
2022/04/25 00:37:24;;;;;;;;;;;;;;;15.80;59.81;99004.19;3147290;28;20044;-72
2022/04/25 00:38:55;;;;;;;19.75;4.05;;;;;;;15.78;59.88;99006.09;3146312;28;20364;-72
2022/04/25 00:40:27;;;;;;;19.90;4.20;;;;;;;15.77;59.78;99012.31;3139724;28;20138;-72
2022/04/25 00:41:58;;;;;;;20.05;3.65;;;;;;;15.73;59.92;98997.75;3141088;28;20057;-72
2022/04/25 00:43:29;;;;;;;23.02;4.05;;;;;;;15.73;60.11;99009.06;3143647;28;20054;-72
2022/04/25 00:45:01;;;;;;;18.00;3.38;;;;;;;15.72;60.08;99004.78;3140827;28;20049;-72
2022/04/25 00:46:36;;;;;;;23.55;4.13;;;;;;;15.66;60.04;98992.13;3145912;28;20094;-72
2022/04/25 00:48:08;;;;;;;15.05;3.20;;;;;;;15.71;60.13;99002.31;3146509;28;20448;-72
2022/04/25 00:49:41;;;;;;;16.70;3.65;;;;;;;15.57;59.90;98977.09;3141002;28;20040;-72
2022/04/25 00:51:13;;;;;;;22.63;3.35;;;;;;;15.67;60.00;98999.03;3140078;28;20114;-72
2022/04/25 00:52:45;;;;;;;21.10;3.65;;;;;;;15.64;60.05;98999.25;3145856;28;20087;-72
2022/04/25 00:54:17;;;;;;;17.13;3.50;;;;;;;15.63;60.24;99002.84;3146349;28;20052;-72
2022/04/25 00:55:50;;;;;;;19.95;3.75;;;;;;;15.61;59.97;99005.59;3146331;28;20049;-71
2022/04/25 00:57:22;;;;;;;13.25;3.13;;;;;;;15.61;60.06;99004.75;3143406;28;20517;-72
2022/04/25 00:58:54;;;;;;;29.45;4.05;;;;;;;15.60;60.10;99009.19;3140764;28;20048;-72
2022/04/25 01:00:26;;;;;;;13.98;3.25;;;;;;;15.62;60.00;99006.44;3145652;28;20106;-72
2022/04/25 01:01:58;;;;;;;22.70;3.63;;;;;;;15.59;60.09;99006.69;3146209;28;20064;-72
2022/04/25 01:03:29;;;;;;;16.35;3.78;;;;;;;15.60;60.00;99014.44;3146346;28;20083;-72
2022/04/25 01:05:01;;;;;;;25.85;3.85;;;;;;;15.60;60.03;99011.81;3146048;28;20049;-72
2022/04/25 01:06:34;;;;;;;18.17;3.78;;;;;;;15.59;60.00;99007.53;3146307;28;20048;-72
2022/04/25 01:08:08;;;;;;;15.38;3.30;;;;;;;15.57;60.06;99009.41;3145871;28;20053;-72
2022/04/25 01:09:40;;;;;;;15.35;3.50;;;;;;;15.57;60.02;99008.59;3145958;28;20441;-72
2022/04/25 01:11:12;;;;;;;20.10;3.67;;;;;;;15.54;60.56;99008.84;3146177;28;20048;-72
2022/04/25 01:12:44;;;;;;;28.60;4.30;;;;;;;15.52;60.53;99001.06;3145882;28;20433;-72
2022/04/25 01:14:18;;;;;;;24.98;4.32;;;;;;;15.50;60.38;98997.75;3145955;28;20052;-72
2022/04/25 01:15:49;;;;;;;23.48;4.20;;;;;;;15.46;60.17;99004.16;3138665;28;20118;-71
2022/04/25 01:17:20;;;;;;;26.98;4.40;;;;;;;15.48;60.69;99010.13;3137405;28;20386;-72
2022/04/25 01:18:52;;;;;;;19.05;3.85;;;;;;;15.41;60.39;99001.91;3145796;28;20049;-72
2022/04/25 01:20:24;;;;;;;19.95;3.70;;;;;;;15.45;60.71;99002.50;3145976;28;20154;-72
2022/04/25 01:22:00;;;;;;;20.90;3.63;;;;;;;15.40;60.47;99000.22;3146030;28;20056;-72
2022/04/25 01:27:17;;;;;;;24.38;5.30;;;;;;;15.29;60.78;98991.53;3145616;28;20041;-72
2022/04/25 01:28:50;;;;;;;20.70;4.95;;;;;;;15.34;60.94;99002.50;3145670;28;20106;-72
2022/04/25 01:30:22;;;;;;;24.15;5.28;;;;;;;15.32;61.24;99004.41;3146012;28;20078;-72
2022/04/25 01:31:53;;;;;;;22.42;4.70;;;;;;;15.27;61.59;99002.16;3145746;28;20052;-72
2022/04/25 01:33:25;;;;;;;17.63;5.35;;;;;;;15.26;61.55;99000.47;3145715;28;20044;-72
2022/04/25 01:34:56;;;;;;;31.00;6.57;;;;;;;15.20;61.66;98996.56;3145881;28;20879;-72
2022/04/25 01:36:27;;;;;;;27.58;7.38;;;;;;;15.21;61.61;99000.84;3145585;28;20214;-72
2022/04/25 01:37:59;;;;;;;24.77;7.35;;;;;;;15.20;61.73;98995.69;3144505;28;20048;-72
2022/04/25 01:39:32;;;;;;;28.27;6.30;;;;;;;15.16;61.85;98995.09;3145350;28;20051;-72
2022/04/25 01:41:04;;;;;;;32.20;5.80;;;;;;;15.15;61.92;99000.47;3138172;28;20053;-72
2022/04/25 01:42:36;;;;;;;27.63;6.20;;;;;;;15.11;62.06;98996.41;3139701;28;20554;-72
2022/04/25 01:44:07;;;;;;;28.85;5.82;;;;;;;15.11;62.14;99001.66;3139834;28;20056;-72
2022/04/25 01:45:40;;;;;;;20.33;6.10;;;;;;;15.06;62.48;99002.00;3145497;28;20052;-72
2022/04/25 01:47:13;;;;;;;27.55;6.82;;;;;;;15.04;62.69;98995.22;3130627;28;20871;-72
2022/04/25 01:48:44;;;;;;;28.27;6.32;;;;;;;15.03;62.70;99004.88;3139385;28;20506;-72
2022/04/25 01:50:16;;;;;;;28.50;6.07;;;;;;;15.00;62.83;98994.63;3139415;28;20052;-72
2022/04/25 01:51:47;;;;;;;17.17;5.20;;;;;;;14.98;62.72;99001.75;3145733;28;20057;-72
2022/04/25 01:53:19;;;;;;;19.70;5.85;;;;;;;14.96;62.94;98994.00;3145624;28;20048;-72
2022/04/25 01:54:52;;;;;;;19.20;5.05;;;;;;;14.92;63.01;98996.97;3145534;28;20052;-72
2022/04/25 01:56:24;;;;;;;;;;;;;;;14.90;62.75;99001.50;3143672;28;20102;-72
2022/04/25 01:57:56;;;;;;;24.55;4.97;;;;;;;14.85;62.83;98991.38;3145943;28;19921;-72
2022/04/25 01:59:28;;;;;;;24.35;6.28;;;;;;;14.86;63.34;99005.31;3143319;28;20056;-72
2022/04/25 02:01:00;;;;;;;23.65;5.90;;;;;;;14.85;63.12;98995.75;3139479;28;20071;-72
2022/04/25 02:02:32;;;;;;;26.85;5.82;;;;;;;14.85;63.38;99003.63;3138244;28;20044;-72
2022/04/25 02:04:04;;;;;;;28.45;5.85;;;;;;;14.84;63.59;98999.34;3142143;28;20418;-72
2022/04/25 02:05:35;;;;;;;22.88;5.80;;;;;;;14.82;63.37;99002.09;3145699;28;20054;-72
2022/04/25 02:07:08;;;;;;;36.53;6.40;;;;;;;14.81;63.57;98996.94;3145277;28;20102;-72
2022/04/25 02:08:40;;;;;;;23.73;5.78;;;;;;;14.81;63.62;98996.94;3144909;28;20098;-72
2022/04/25 02:10:13;;;;;;;20.65;5.35;;;;;;;14.81;63.67;98997.78;3145525;28;20110;-72
2022/04/25 02:11:44;;;;;;;19.27;4.95;;;;;;;14.78;64.05;99001.47;3145086;28;20048;-71
2022/04/25 02:13:16;;;;;;;23.50;5.60;;;;;;;14.75;63.95;98998.25;3145668;28;20201;-71
2022/04/25 02:14:48;;;;;;;25.02;6.15;;;;;;;14.71;64.28;98995.03;3145299;28;20141;-72
2022/04/25 02:16:20;;;;;;;22.17;5.82;;;;;;;14.65;64.19;98990.25;3145139;28;20067;-72
2022/04/25 02:17:52;;;;;;;18.98;4.93;;;;;;;14.67;64.49;99004.09;3145227;28;20055;-72
2022/04/25 02:19:24;;;;;;;20.35;5.47;;;;;;;14.65;64.57;99003.34;3145346;28;20045;-72
2022/04/25 02:20:55;;;;;;;24.00;5.25;;;;;;;14.64;64.46;99006.94;3144980;28;20106;-72
2022/04/25 02:22:27;;;;;;;27.67;5.07;;;;;;;14.61;64.82;99003.69;3145595;28;20691;-72
2022/04/25 02:23:59;;;;;;;30.73;6.47;;;;;;;14.53;64.80;98999.03;3135820;28;20102;-72
2022/04/25 02:25:32;;;;;;;15.15;5.07;;;;;;;14.51;65.61;99006.13;3131536;28;20411;-72
2022/04/25 02:27:04;;;;;;;22.33;5.97;;;;;;;14.44;65.62;99010.16;3139451;28;20144;-72
2022/04/25 02:28:37;;;;;;;25.13;5.07;;;;;;;14.39;65.67;99000.00;3145184;28;20578;-72
2022/04/25 02:30:10;;;;;;;32.78;5.72;;;;;;;14.42;65.96;99006.81;3145064;28;21018;-72
2022/04/25 02:31:42;;;;;;;31.60;5.55;;;;;;;14.41;65.62;99013.00;3144240;28;20053;-72
2022/04/25 02:33:13;;;;;;;20.70;5.82;;;;;;;14.29;66.17;98989.38;3145504;28;20051;-72
2022/04/25 02:34:46;;;;;;;25.42;6.35;;;;;;;14.37;66.11;98998.44;3145192;28;20071;-72
2022/04/25 02:36:17;;;;;;;26.98;5.50;;;;;;;14.40;65.97;99006.06;3139172;28;20060;-72
2022/04/25 02:37:49;;;;;;;22.80;5.90;;;;;;;14.41;66.09;99005.97;3139181;28;20084;-72
2022/04/25 02:39:21;;;;;;;22.05;5.22;;;;;;;14.43;66.04;99005.84;3144091;28;20442;-71
2022/04/25 02:41:04;;;;;;;16.38;5.03;;;;;;;14.44;65.81;98997.88;3143785;28;20114;-72
2022/04/25 02:42:36;;;;;;;26.67;6.72;;;;;;;14.36;65.88;98992.38;3145036;28;20047;-72
2022/04/25 02:44:07;;;;;;;26.38;6.95;;;;;;;14.37;66.29;98995.81;3137301;28;20053;-72
2022/04/25 02:45:39;;;;;;;23.75;6.57;;;;;;;14.40;66.00;98998.22;3139718;28;20117;-72
2022/04/25 02:47:11;;;;;;;24.23;5.82;;;;;;;14.15;66.17;98960.75;3144763;28;20048;-71
2022/04/25 02:48:43;;;;;;;21.65;7.55;;;;;;;14.40;66.54;98996.44;3145365;28;20052;-72
2022/04/25 02:50:15;;;;;;;24.98;6.57;;;;;;;14.41;66.40;99005.97;3140719;28;20045;-72
2022/04/25 02:51:47;;;;;;;22.58;6.45;;;;;;;14.40;66.28;98996.44;3145010;28;20113;-72
2022/04/25 02:53:18;;;;;;;20.35;6.40;;;;;;;14.45;65.89;98999.56;3144228;28;20052;-72
2022/04/25 02:54:50;;;;;;;23.38;6.25;;;;;;;14.40;66.04;98991.19;3144945;28;20084;-72
2022/04/25 02:56:23;;;;;;;20.35;5.82;;;;;;;14.45;66.17;98999.56;3145207;28;20052;-72
2022/04/25 02:57:55;;;;;;;22.67;6.75;;;;;;;14.46;66.15;99009.06;3145052;28;20102;-72
2022/04/25 02:59:27;;;;;;;33.00;6.45;;;;;;;14.46;66.14;99013.47;3144661;28;20099;-72
2022/04/25 03:00:59;;;;;;;25.25;6.88;;;;;;;14.43;66.55;99003.22;3145030;28;20513;-72
2022/04/25 03:02:31;;;;;;;19.83;6.90;;;;;;;14.42;66.17;99002.41;3145156;28;20483;-72
2022/04/25 03:04:03;;;;;;;31.80;6.63;;;;;;;14.43;66.36;99006.66;3140016;28;20470;-72
2022/04/25 03:05:36;;;;;;;28.95;8.02;;;;;;;14.43;66.37;99003.22;3144768;28;20048;-71
2022/04/25 03:07:08;;;;;;;34.70;6.95;;;;;;;14.40;66.53;99001.66;3144332;28;20088;-72
2022/04/25 03:08:40;;;;;;;28.95;6.85;;;;;;;14.40;66.57;99011.31;3145242;28;20052;-72
2022/04/25 03:10:11;;;;;;;23.10;6.38;;;;;;;14.31;66.79;98992.69;3145299;28;20052;-72
2022/04/25 03:11:44;;;;;;;30.25;7.72;;;;;;;14.36;66.84;99010.72;3137909;28;20113;-72
2022/04/25 03:13:17;;;;;;;26.38;6.90;;;;;;;14.38;66.58;99008.00;3144986;28;20052;-72
2022/04/25 03:14:49;;;;;;;26.73;7.28;;;;;;;14.41;66.74;99010.38;3142049;28;20048;-72
2022/04/25 03:16:21;;;;;;;27.23;6.78;;;;;;;14.42;66.43;99012.88;3144376;28;20118;-72
2022/04/25 03:17:53;;;;;;;30.10;7.15;;;;;;;14.42;66.54;99012.03;3144843;28;20139;-72
2022/04/25 03:19:25;;;;;;;30.13;7.25;;;;;;;14.36;66.85;99009.88;3144294;28;20052;-72
2022/04/25 03:20:57;;;;;;;23.40;7.50;;;;;;;14.37;66.99;99006.28;3145126;28;20059;-72
2022/04/25 03:22:29;;;;;;;24.90;6.95;;;;;;;14.32;66.85;99002.25;3144577;28;20382;-72
2022/04/25 03:24:02;;;;;;;26.38;6.93;;;;;;;14.31;67.18;99005.78;3144992;28;20052;-72
2022/04/25 03:25:34;;;;;;;29.45;7.00;;;;;;;14.24;67.05;99001.13;3138695;28;20132;-72
2022/04/25 03:27:07;;;;;;;28.27;6.95;;;;;;;14.22;67.17;99003.00;3144850;28;20049;-72
2022/04/25 03:28:39;;;;;;;;;;;;;;;14.17;67.62;99007.75;3144907;28;20059;-72
2022/04/25 03:30:10;;;;;;;23.05;6.72;;;;;;;14.08;67.71;99014.50;3144739;28;19974;-72
2022/04/25 03:31:42;;;;;;;27.88;7.72;;;;;;;14.02;67.76;99007.94;3134337;28;20510;-72
2022/04/25 03:33:15;;;;;;;28.55;6.75;;;;;;;13.89;67.87;99005.34;3139120;28;20500;-72
2022/04/25 03:34:47;;;;;;;27.58;7.65;;;;;;;13.91;68.30;99007.03;3139880;28;20053;-72
2022/04/25 03:36:19;;;;;;;27.70;7.63;;;;;;;13.87;68.22;99006.38;3145214;28;20053;-72
2022/04/25 03:37:52;;;;;;;21.67;6.57;;;;;;;13.79;68.53;99006.94;3137424;28;20131;-72
2022/04/25 03:39:24;;;;;;;24.48;8.00;;;;;;;13.80;68.67;99011.22;3137680;28;20049;-71
2022/04/25 03:40:56;;;;;;;30.50;7.40;;;;;;;13.80;68.53;99011.22;3144797;28;20056;-72
2022/04/25 03:42:29;;;;;;;30.75;7.28;;;;;;;13.84;68.28;99012.69;3134664;28;20053;-72
2022/04/25 03:44:01;;;;;;;24.88;7.60;;;;;;;13.81;68.37;99004.22;3144096;28;20052;-72
2022/04/25 03:45:33;;;;;;;22.58;6.95;;;;;;;13.89;67.97;99007.97;3135258;28;20538;-72
2022/04/25 03:47:06;;;;;;;25.48;7.32;;;;;;;13.89;68.26;99007.97;3146900;28;20072;-72
2022/04/25 03:48:40;;;;;;;26.30;7.20;;;;;;;13.88;68.03;99008.91;3143850;28;20099;-72
2022/04/25 03:50:13;;;;;;;27.60;7.10;;;;;;;13.88;67.94;99010.69;3146656;28;20055;-72
2022/04/25 03:51:45;;;;;;;29.20;6.68;;;;;;;13.78;68.29;98994.81;3147225;28;20579;-72
2022/04/25 03:53:17;;;;;;;21.35;7.88;;;;;;;13.86;67.90;99010.78;3146489;28;20098;-72
2022/04/25 03:58:29;;;;;;;36.80;8.82;;;;;;;13.79;67.85;99006.94;3139315;28;20048;-72
2022/04/25 04:00:00;;;;;;;23.25;8.27;;;;;;;13.84;67.88;99014.47;3144673;28;20098;-72
2022/04/25 04:01:32;;;;;;;25.10;7.95;;;;;;;13.84;67.88;99010.09;3146426;28;20865;-72
2022/04/25 04:03:06;;;;;;;25.23;8.10;;;;;;;13.64;68.17;98980.09;3146472;28;20151;-72
2022/04/25 04:04:38;;;;;;;30.55;7.80;;;;;;;13.81;67.98;99006.81;3146823;28;20084;-72
2022/04/25 04:06:12;;;;;;;22.27;7.53;;;;;;;13.82;68.15;99014.59;3146895;28;20053;-72
2022/04/25 04:07:45;;;;;;;17.65;6.90;;;;;;;13.84;68.04;99009.22;3146738;28;20147;-72
2022/04/25 04:11:06;;;;;;;28.17;7.03;;;;;;;13.78;68.04;99005.28;3147014;28;20410;-72
2022/04/25 04:12:39;;;;;;;28.80;7.97;;;;;;;13.84;68.16;99012.69;3142800;28;20277;-72
2022/04/25 04:14:12;;;;;;;27.73;7.25;;;;;;;13.89;67.81;99002.72;3146971;28;20152;-72
2022/04/25 04:15:44;;;;;;;33.25;7.30;;;;;;;13.94;67.94;99010.25;3146331;28;20078;-72
2022/04/25 04:17:17;;;;;;;23.95;6.82;;;;;;;13.98;67.88;98995.16;3137117;28;20442;-72
2022/04/25 04:18:49;;;;;;;23.95;6.95;;;;;;;13.96;67.67;98987.44;3146772;28;20131;-72
2022/04/25 04:20:21;;;;;;;29.25;7.88;;;;;;;13.97;67.84;98978.63;3146388;28;20048;-72
2022/04/25 04:21:53;;;;;;;31.88;8.30;;;;;;;13.99;67.55;98983.72;3146610;28;20052;-72
2022/04/25 04:23:25;;;;;;;20.52;7.40;;;;;;;14.07;67.45;98989.25;3146416;28;20048;-72
2022/04/25 04:25:00;;;;;;;27.50;6.95;;;;;;;14.09;67.21;98987.38;3143657;28;20057;-72
2022/04/25 04:26:32;;;;;;;26.80;6.68;;;;;;;14.04;67.20;98971.97;3129851;28;20052;-72
2022/04/25 04:28:06;;;;;;;27.83;7.93;;;;;;;14.08;67.38;98970.00;3143122;28;20044;-72
2022/04/25 04:29:39;;;;;;;22.92;8.07;;;;;;;14.10;67.16;98963.69;3146862;28;20114;-72
2022/04/25 04:31:11;;;;;;;25.27;6.93;;;;;;;14.13;67.20;98964.41;3146099;28;20528;-72
2022/04/25 04:32:43;;;;;;;28.23;7.75;;;;;;;14.10;66.78;98949.75;3141429;28;20048;-72
2022/04/25 04:34:15;;;;;;;26.20;6.63;;;;;;;14.13;66.87;98946.91;3146895;28;20578;-72
2022/04/25 04:37:37;;;;;;;26.95;7.97;;;;;;;14.21;66.58;98957.66;3139461;28;20052;-72
2022/04/25 04:39:09;;;;;;;;;;;;;;;14.19;66.87;98959.56;3140661;28;20125;-71
2022/04/25 04:40:40;;;;;;;21.23;6.88;;;;;;;14.17;66.92;98958.84;3146199;28;19924;-72
2022/04/25 04:42:12;;;;;;;31.60;8.52;;;;;;;14.13;67.00;98959.19;3142954;28;20286;-72
2022/04/25 04:43:43;;;;;;;31.80;7.30;;;;;;;14.09;66.91;98961.19;3146406;28;20378;-72
2022/04/25 04:45:17;;;;;;;34.17;8.75;;;;;;;14.07;66.59;98968.31;3146385;28;20057;-72
2022/04/25 04:46:49;;;;;;;25.77;6.93;;;;;;;14.01;66.63;98969.59;3140101;28;20433;-72
2022/04/25 04:48:20;;;;;;;27.50;8.50;;;;;;;14.03;66.70;98972.13;3146319;28;20067;-72
2022/04/25 04:49:55;;;;;;;20.75;6.90;;;;;;;14.01;67.15;98963.53;3141358;28;20091;-71
2022/04/25 04:51:27;;;;;;;31.83;8.13;;;;;;;14.00;66.86;98967.09;3146314;28;20079;-72
2022/04/25 04:53:00;;;;;;;26.20;7.40;;;;;;;13.96;67.07;98965.63;3145974;28;20048;-72
2022/04/25 04:54:32;;;;;;;26.65;8.15;;;;;;;13.96;67.04;98974.34;3146570;28;20509;-72
2022/04/25 04:56:05;;;;;;;25.38;8.23;;;;;;;13.94;67.07;98965.75;3145358;28;20053;-72
2022/04/25 04:57:37;;;;;;;24.30;7.45;;;;;;;13.98;67.21;98979.47;3135703;28;20053;-72
2022/04/25 04:59:09;;;;;;;28.98;8.95;;;;;;;13.98;67.00;98969.81;3141883;28;20080;-72
2022/04/25 05:00:44;;;;;;;24.50;7.28;;;;;;;13.97;67.12;98962.91;3146141;28;20056;-72
2022/04/25 05:02:16;;;;;;;24.45;8.18;;;;;;;13.99;67.15;98953.19;3146091;28;20483;-72
2022/04/25 05:03:49;;;;;;;20.67;7.80;;;;;;;13.99;67.03;98955.81;3146196;28;20102;-72
2022/04/25 05:05:21;;;;;;;40.45;8.27;;;;;;;14.01;67.26;98945.19;3146177;28;20083;-72
2022/04/25 05:06:53;;;;;;;33.67;7.97;;;;;;;14.02;66.96;98949.47;3146124;28;20084;-72
2022/04/25 05:08:25;;;;;;;20.10;7.07;;;;;;;14.02;67.26;98954.72;3146243;28;20052;-72
2022/04/25 05:09:57;;;;;;;33.40;8.82;;;;;;;14.04;67.31;98963.31;3145798;28;20052;-72
2022/04/25 05:11:30;;;;;;;26.23;7.30;;;;;;;14.08;67.32;98967.38;3146324;28;20433;-72
2022/04/25 05:13:03;;;;;;;32.90;7.32;;;;;;;14.11;67.25;98975.00;3145898;28;20493;-72
2022/04/25 05:14:35;;;;;;;26.88;7.35;;;;;;;14.11;67.52;98975.84;3145971;28;20052;-71
2022/04/25 05:16:08;;;;;;;31.55;8.00;;;;;;;14.12;67.10;98981.91;3145609;28;20492;-72
2022/04/25 05:17:41;;;;;;;22.42;6.57;;;;;;;14.20;66.94;98986.59;3146489;28;20074;-72
2022/04/25 05:19:13;;;;;;;32.80;6.95;;;;;;;14.29;67.10;98991.16;3145853;28;20136;-72
2022/04/25 05:20:45;;;;;;;27.38;7.20;;;;;;;14.36;67.00;98996.78;3139167;28;20553;-72
2022/04/25 05:22:17;;;;;;;27.83;7.38;;;;;;;14.43;66.98;98995.38;3142961;28;20125;-72
2022/04/25 05:23:49;;;;;;;24.30;7.30;;;;;;;14.52;66.50;98998.19;3141938;28;20049;-72
2022/04/25 05:25:22;;;;;;;26.92;6.75;;;;;;;14.54;66.70;98987.59;3145884;28;20140;-72
2022/04/25 05:26:54;;;;;;;22.70;6.93;;;;;;;14.67;66.44;98998.84;3142694;28;20055;-73
2022/04/25 05:28:26;;;;;;;24.23;7.22;;;;;;;14.76;66.02;98998.16;3144498;28;20052;-72
2022/04/25 05:29:58;;;;;;;26.80;7.40;;;;;;;14.79;65.52;98997.09;3140922;28;20110;-72
2022/04/25 05:31:31;;;;;;;27.95;7.65;;;;;;;14.79;65.61;98997.91;3139096;28;20506;-72
2022/04/25 05:33:03;;;;;;;24.58;7.13;;;;;;;14.99;65.46;99032.25;3141661;28;20426;-72
2022/04/25 05:34:35;;;;;;;22.23;7.65;;;;;;;15.07;65.28;99042.19;3143311;28;20052;-72
2022/04/25 05:36:07;;;;;;;17.67;7.15;;;;;;;15.13;64.96;99034.66;3144080;28;20048;-71
2022/04/25 05:37:38;;;;;;;33.78;7.72;;;;;;;15.19;64.63;99038.63;3145587;28;20499;-72
2022/04/25 05:39:10;;;;;;;20.40;7.70;;;;;;;15.40;64.33;99047.47;3144652;28;20079;-72
2022/04/25 05:40:43;;;;;;;17.30;7.18;;;;;;;15.55;63.76;99047.22;3136202;28;20053;-72
2022/04/25 05:42:15;;;;;;;30.75;7.80;;;;;;;15.63;63.49;99056.19;3144226;28;20102;-73
2022/04/25 05:43:47;;;;;;;22.58;7.45;;;;;;;15.64;63.43;99052.59;3144244;28;20052;-72
2022/04/25 05:45:21;;;;;;;32.72;7.20;;;;;;;15.66;63.04;99052.47;3144502;28;20063;-73
2022/04/25 05:46:56;;;;;;;20.85;6.30;;;;;;;15.78;62.69;99062.06;3145801;28;20052;-73
2022/04/25 05:52:08;;;;;;;25.15;6.82;;;;;;;15.82;62.11;99066.09;3142889;28;20482;-72
2022/04/25 05:53:40;;;;;;;21.27;6.68;;;;;;;15.84;62.36;99066.81;3132562;28;20053;-72
2022/04/25 05:55:12;;;;;;;32.25;7.13;;;;;;;15.74;62.34;99068.50;3137255;28;20052;-71
2022/04/25 05:56:43;;;;;;;25.13;7.43;;;;;;;15.66;62.56;99069.06;3139640;28;20060;-71
2022/04/25 05:58:15;;;;;;;26.65;7.10;;;;;;;15.61;62.94;99073.00;3143872;28;20111;-71
2022/04/25 05:59:47;;;;;;;23.40;7.65;;;;;;;15.58;62.90;99067.97;3145554;28;20049;-71
2022/04/25 06:01:19;;;;;;;26.70;7.28;;;;;;;15.58;63.10;99067.97;3145184;28;20120;-71
2022/04/25 06:02:52;;;;;;;25.52;7.03;;;;;;;15.53;63.39;99057.84;3145087;28;20414;-71
2022/04/25 06:04:24;;;;;;;27.67;6.65;;;;;;;15.55;63.71;99066.44;3145333;28;20106;-71
2022/04/25 06:05:56;;;;;;;21.85;7.00;;;;;;;15.61;63.45;99065.13;3145539;28;20102;-71
2022/04/25 06:07:28;;;;;;;20.08;5.35;;;;;;;15.67;63.35;99049.75;3145662;28;20090;-71
2022/04/25 06:09:00;;;;;;;21.33;6.28;;;;;;;15.74;63.34;99046.69;3138388;28;20118;-71
2022/04/25 06:10:32;;;;;;;24.48;6.25;;;;;;;15.81;63.22;99032.09;3141977;28;20059;-71
2022/04/25 06:12:05;;;;;;;24.20;6.65;;;;;;;15.94;63.14;99043.28;3145620;28;20041;-71
2022/04/25 06:13:37;;;;;;;21.55;6.82;;;;;;;16.00;62.81;99048.09;3144761;28;20107;-71
2022/04/25 06:15:10;;;;;;;23.90;5.80;;;;;;;16.08;62.70;99044.81;3144918;28;20445;-71
2022/04/25 06:16:42;;;;;;;29.88;5.40;;;;;;;16.15;62.17;99046.03;3145150;28;20956;-71
2022/04/25 06:18:15;;;;;;;30.75;6.10;;;;;;;16.25;62.30;99048.72;3145218;28;20052;-71
2022/04/25 06:19:46;;;;;;;;;;;;;;;16.35;62.16;99052.28;3145627;28;20049;-71
2022/04/25 06:21:17;;;;;;;27.00;6.05;;;;;;;16.32;61.55;99027.06;3145320;28;19928;-71
2022/04/25 06:22:53;;;;;;;32.13;5.57;;;;;;;16.52;61.35;99049.09;3139750;28;20045;-71
2022/04/25 06:24:26;;;;;;;19.17;5.45;;;;;;;16.52;60.99;99041.22;3137099;28;20056;-71
2022/04/25 06:25:58;;;;;;;18.75;5.22;;;;;;;16.65;60.91;99042.84;3141184;28;20121;-71
2022/04/25 06:27:30;;;;;;;22.02;5.45;;;;;;;16.68;60.95;99034.69;3140732;28;20048;-71
2022/04/25 06:29:03;;;;;;;27.33;6.20;;;;;;;16.84;60.38;99043.03;3145079;28;20049;-71
2022/04/25 06:30:35;;;;;;;20.70;5.28;;;;;;;16.93;60.31;99042.25;3143734;28;20430;-71
2022/04/25 06:32:07;;;;;;;33.58;5.55;;;;;;;16.98;59.56;99034.84;3144779;28;20579;-71
2022/04/25 06:33:41;;;;;;;14.55;4.85;;;;;;;17.10;59.02;99034.78;3142054;28;20075;-71
2022/04/25 06:35:12;;;;;;;17.90;4.85;;;;;;;17.17;59.06;99020.13;3137206;28;20134;-71
2022/04/25 06:36:44;;;;;;;18.80;5.25;;;;;;;17.24;58.70;99016.00;3144208;28;20049;-71
2022/04/25 06:38:18;;;;;;;14.55;5.95;;;;;;;17.34;58.39;99027.41;3145025;28;20098;-71
2022/04/25 06:39:49;;;;;;;;;;;;;;;17.43;57.65;99028.44;3145731;28;20445;-71
2022/04/25 06:41:22;;;;;;;27.20;8.18;;;;;;;17.52;57.83;99032.91;3144547;28;20387;-71
2022/04/25 06:42:55;;;;;;;30.07;7.83;;;;;;;17.51;57.55;99018.06;3145197;28;20425;-71
2022/04/25 06:44:28;;;;;;;29.30;8.07;;;;;;;17.71;57.18;99035.59;3144863;28;20049;-71
2022/04/25 06:45:59;;;;;;;21.60;9.15;;;;;;;17.82;56.40;99028.59;3145056;28;20068;-71
2022/04/25 06:47:31;;;;;;;22.42;8.68;;;;;;;17.89;55.69;99033.19;3145328;28;20045;-71
2022/04/25 06:49:24;;;;;;;37.80;9.93;;;;;;;17.97;55.41;99027.25;3145043;28;20091;-71
2022/04/25 06:50:56;;;;;;;30.10;8.82;;;;;;;18.00;55.03;99023.50;3139096;28;20048;-71
2022/04/25 06:52:28;;;;;;;22.58;6.78;;;;;;;18.10;54.55;99030.47;3145332;28;20060;-71
2022/04/25 06:54:00;;;;;;;27.30;7.13;;;;;;;18.18;54.45;99033.25;3144966;28;20102;-71
2022/04/25 06:55:32;;;;;;;28.52;6.15;;;;;;;18.26;54.32;99042.28;3140756;28;20053;-71
2022/04/25 06:57:05;;;;;;;14.60;4.93;;;;;;;18.36;53.95;99033.41;3141666;28;20059;-71
2022/04/25 06:58:37;;;;;;;29.58;5.07;;;;;;;18.45;53.71;99031.75;3144928;28;20473;-71
2022/04/25 07:00:11;;;;;;;15.23;4.57;;;;;;;18.46;53.40;99014.13;3144841;28;20055;-71
2022/04/25 07:01:43;;;;;;;18.50;4.60;;;;;;;18.67;53.38;99038.56;3139343;28;20055;-71
2022/04/25 07:03:15;;;;;;;19.95;5.45;;;;;;;18.71;52.62;99032.03;3145295;28;20135;-71
2022/04/25 07:04:48;;;;;;;24.13;4.30;;;;;;;18.79;52.66;99032.19;3145142;28;20044;-70
2022/04/25 07:06:20;;;;;;;;;;;;;;;18.84;52.24;99029.13;3145492;28;20102;-71
2022/04/25 07:07:52;;;;;;;20.20;4.68;;;;;;;18.80;52.20;99030.38;3145193;28;19920;-71
2022/04/25 07:09:24;;;;;;;17.98;5.13;;;;;;;18.92;52.31;99023.16;3144920;28;20079;-71
2022/04/25 07:10:56;;;;;;;21.80;4.22;;;;;;;19.03;52.50;99025.63;3144831;28;20045;-71
2022/04/25 07:12:28;;;;;;;21.50;5.25;;;;;;;19.11;51.82;99025.78;3145068;28;20139;-71
2022/04/25 07:14:02;;;;;;;25.67;4.35;;;;;;;19.19;51.30;99031.13;3145041;28;20060;-71
2022/04/25 07:15:34;;;;;;;18.55;4.20;;;;;;;19.17;50.97;99021.72;3142950;28;20048;-72
2022/04/25 07:17:06;;;;;;;16.08;3.90;;;;;;;19.27;50.60;99028.63;3144667;28;20076;-71
2022/04/25 07:18:38;;;;;;;23.20;4.80;;;;;;;19.23;50.36;99027.25;3138399;28;20049;-71
2022/04/25 07:20:11;;;;;;;28.27;4.93;;;;;;;19.31;50.53;99030.03;3144700;28;20084;-71
2022/04/25 07:29:02;;;;;;;14.05;4.88;;;;;;;19.57;49.62;99018.78;3144869;28;20505;-71
2022/04/25 07:30:34;;;;;;;14.27;3.72;;;;;;;19.58;49.28;99020.47;3146493;28;20097;-71
2022/04/25 07:32:07;;;;;;;26.75;4.70;;;;;;;19.59;49.29;99022.13;3146697;28;20468;-71